Time;durP1;ratioP1;P1;durP2;ratioP2;P2;SDS_P1;SDS_P2;PMS_P1;PMS_P2;Temp;Humidity;BMP_temperature;BMP_pressure;BME280_temperature;BME280_humidity;BME280_pressure;Samples;Min_cycle;Max_cycle;Signal;HPM_P1;HPM_P2
2023/05/01 00:02:36;;;;;;;8.27;5.77;;;;;;;3.69;89.13;98105.56;6077286;29;20975;-42
2023/05/01 00:05:39;;;;;;;7.87;5.27;;;;;;;3.65;89.15;98100.88;6073462;29;20628;-41
2023/05/01 00:08:41;;;;;;;6.70;5.30;;;;;;;3.67;89.23;98102.31;6073721;29;20242;-41
2023/05/01 00:11:43;;;;;;;6.20;4.90;;;;;;;3.59;89.34;98089.25;6072028;29;20407;-41
2023/05/01 00:14:45;;;;;;;9.43;5.60;;;;;;;3.58;89.38;98090.25;6076544;29;20322;-42
2023/05/01 00:17:47;;;;;;;6.53;5.77;;;;;;;3.34;89.53;98057.97;6073081;29;20712;-42
2023/05/01 00:20:49;;;;;;;8.80;5.60;;;;;;;3.52;89.68;98088.38;6070077;29;20331;-41
2023/05/01 00:23:51;;;;;;;6.03;5.23;;;;;;;3.48;89.48;98085.28;6073546;29;20619;-41
2023/05/01 00:26:54;;;;;;;7.03;5.30;;;;;;;3.49;89.52;98083.47;6074209;29;20244;-42
2023/05/01 00:29:56;;;;;;;11.43;5.87;;;;;;;3.52;89.67;98078.66;6074035;29;20341;-45
2023/05/01 00:32:59;;;;;;;8.10;5.23;;;;;;;3.48;89.39;98089.75;6060649;29;20617;-42
2023/05/01 00:36:02;;;;;;;6.27;5.33;;;;;;;3.29;89.51;98075.34;6061028;29;20233;-42
2023/05/01 00:39:06;;;;;;;11.47;5.03;;;;;;;3.39;89.34;98086.41;6060917;29;20711;-42
2023/05/01 00:42:08;;;;;;;7.87;5.53;;;;;;;3.30;89.57;98072.56;6053169;29;20232;-42
2023/05/01 00:45:11;;;;;;;8.03;4.87;;;;;;;3.41;89.50;98081.78;6075618;29;20208;-44
2023/05/01 00:48:14;;;;;;;8.80;5.57;;;;;;;3.33;89.28;98082.69;6061330;29;20230;-41
2023/05/01 00:51:16;;;;;;;9.57;5.07;;;;;;;3.28;89.34;98084.25;6074780;29;20324;-42
2023/05/01 00:54:18;;;;;;;7.37;5.10;;;;;;;3.27;89.59;98080.00;6074832;29;20221;-42
2023/05/01 00:57:21;;;;;;;8.13;5.73;;;;;;;3.28;89.48;98074.53;6076312;29;20367;-41
2023/05/01 01:00:23;;;;;;;5.60;4.70;;;;;;;3.28;89.35;98068.47;6073895;29;20319;-42
2023/05/01 01:03:26;;;;;;;7.93;4.87;;;;;;;3.20;89.28;98082.56;6072203;29;20764;-42
2023/05/01 01:06:45;;;;;;;5.53;4.50;;;;;;;3.21;89.48;98080.75;6039813;29;20228;-43
2023/05/01 01:09:50;;;;;;;5.97;4.43;;;;;;;3.25;89.57;98080.19;6053928;29;20243;-42
2023/05/01 01:13:09;;;;;;;6.93;4.53;;;;;;;3.26;89.39;98073.91;6048014;29;20268;-42
2023/05/01 01:16:20;;;;;;;7.47;5.00;;;;;;;3.19;88.96;98073.00;6037775;29;20981;-43
2023/05/01 01:20:00;;;;;;;7.17;4.30;;;;;;;3.16;88.78;98062.88;6072166;29;20247;-43
2023/05/01 01:23:09;;;;;;;7.13;4.83;;;;;;;3.03;88.76;98060.06;6073232;29;20276;-41
2023/05/01 01:26:33;;;;;;;9.90;5.43;;;;;;;2.97;89.16;98066.06;6072057;29;20248;-42
2023/05/01 01:30:07;;;;;;;5.20;4.70;;;;;;;2.98;89.22;98059.81;6073732;29;20232;-41
2023/05/01 01:33:40;;;;;;;4.67;3.97;;;;;;;2.96;89.11;98064.44;6015870;29;20237;-42
2023/05/01 01:36:55;;;;;;;5.03;4.30;;;;;;;2.93;89.28;98063.00;6059514;29;20240;-42
2023/05/01 01:40:08;;;;;;;8.70;4.77;;;;;;;2.92;89.44;98055.28;6065607;29;20244;-41
2023/05/01 01:43:15;;;;;;;7.93;5.20;;;;;;;2.89;89.25;98055.66;6065206;29;20832;-41
2023/05/01 01:46:19;;;;;;;5.77;4.50;;;;;;;2.84;89.08;98058.81;6070625;29;20244;-42
2023/05/01 01:49:25;;;;;;;8.13;4.47;;;;;;;2.77;89.06;98056.13;6077522;29;20236;-42
2023/05/01 01:52:28;;;;;;;4.33;3.93;;;;;;;2.77;89.17;98058.75;6076635;29;20242;-43
2023/05/01 01:55:33;;;;;;;8.17;4.73;;;;;;;2.77;89.15;98053.47;6059115;29;20242;-41
2023/05/01 01:58:38;;;;;;;9.60;4.80;;;;;;;2.74;89.06;98051.22;6076208;29;20255;-43
2023/05/01 02:01:43;;;;;;;5.37;4.00;;;;;;;2.71;88.88;98054.22;6067105;29;20244;-41
2023/05/01 02:04:47;;;;;;;4.60;3.93;;;;;;;2.66;88.90;98053.09;6075052;29;20249;-41
2023/05/01 02:07:51;;;;;;;7.43;4.50;;;;;;;2.64;89.01;98047.22;6074015;29;20342;-41
2023/05/01 02:10:58;;;;;;;6.63;4.13;;;;;;;2.58;89.01;98048.78;6073829;29;20244;-42
2023/05/01 02:14:04;;;;;;;9.77;4.23;;;;;;;2.58;89.13;98046.16;6059893;29;20241;-42
2023/05/01 02:17:08;;;;;;;4.70;4.00;;;;;;;2.53;89.24;98035.34;6060668;29;20388;-41
2023/05/01 02:20:12;;;;;;;6.57;4.17;;;;;;;2.47;89.12;98038.72;6062566;29;20245;-42
2023/05/01 02:23:15;;;;;;;7.80;4.07;;;;;;;2.44;89.21;98039.06;6066267;29;20270;-41
2023/05/01 02:26:22;;;;;;;5.23;3.80;;;;;;;2.40;89.12;98032.53;6074776;29;20229;-42
2023/05/01 02:29:25;;;;;;;5.13;3.73;;;;;;;2.36;89.12;98039.16;6064027;29;20238;-43
2023/05/01 02:32:27;;;;;;;4.13;3.40;;;;;;;2.35;89.12;98029.63;6066686;29;20235;-41
2023/05/01 02:35:30;;;;;;;6.73;3.87;;;;;;;2.32;89.20;98021.13;6058720;29;20235;-41
2023/05/01 02:38:32;;;;;;;5.93;3.70;;;;;;;2.00;89.17;97980.22;6075749;29;20247;-41
2023/05/01 02:41:35;;;;;;;9.03;4.23;;;;;;;2.22;89.12;98025.03;6047412;29;20269;-41
2023/05/01 02:44:42;;;;;;;7.50;4.07;;;;;;;2.16;89.51;98023.91;6075556;29;20299;-41
2023/05/01 02:47:49;;;;;;;6.00;4.13;;;;;;;2.12;89.49;98014.75;6058473;29;20236;-41
2023/05/01 02:50:52;;;;;;;5.90;3.90;;;;;;;2.10;89.47;98013.31;6058334;29;20240;-41
2023/05/01 02:53:55;;;;;;;6.17;3.87;;;;;;;2.07;89.65;98017.13;6075124;29;20236;-41
2023/05/01 02:56:58;;;;;;;6.77;4.30;;;;;;;2.02;89.39;98009.78;6057614;29;20299;-41
2023/05/01 03:00:00;;;;;;;7.07;4.70;;;;;;;1.98;89.73;98011.13;6075457;29;20253;-41
2023/05/01 03:03:02;;;;;;;5.23;4.03;;;;;;;1.97;89.73;98004.25;6075638;29;20755;-41
2023/05/01 03:06:04;;;;;;;5.80;4.10;;;;;;;1.93;89.64;98002.97;6058117;29;20226;-41
2023/05/01 03:09:07;;;;;;;5.40;3.97;;;;;;;1.90;89.74;98000.69;6054156;29;20219;-41
2023/05/01 03:12:10;;;;;;;5.87;4.00;;;;;;;1.90;89.80;97998.06;6063124;29;20309;-41
2023/05/01 03:15:12;;;;;;;7.87;4.23;;;;;;;1.90;89.63;97997.25;6075062;29;20321;-41
2023/05/01 03:18:14;;;;;;;6.97;3.93;;;;;;;1.93;89.98;98000.34;6062081;29;20343;-41
2023/05/01 03:21:17;;;;;;;6.07;4.20;;;;;;;1.99;90.09;97998.78;6062852;29;20725;-41
2023/05/01 03:24:19;;;;;;;5.60;4.30;;;;;;;1.91;89.87;97978.66;6046329;29;20620;-42
2023/05/01 03:27:20;;;;;;;6.07;4.53;;;;;;;1.96;89.81;97996.50;6052327;29;20401;-41
2023/05/01 03:30:22;;;;;;;6.57;4.07;;;;;;;1.89;89.59;98004.31;6073942;29;20712;-41
2023/05/01 03:33:26;;;;;;;8.13;4.10;;;;;;;1.86;89.66;97998.59;6056459;29;20230;-41
2023/05/01 03:36:28;;;;;;;5.63;4.20;;;;;;;1.87;89.83;97998.41;6057139;29;20234;-41
2023/05/01 03:39:31;;;;;;;8.10;4.23;;;;;;;1.83;89.56;97999.78;6074603;29;20296;-42
2023/05/01 03:42:58;;;;;;;7.97;4.20;;;;;;;1.81;89.85;98004.38;6073796;29;20232;-41
2023/05/01 03:46:01;;;;;;;6.43;3.67;;;;;;;1.84;89.90;97997.97;6063609;29;20243;-41
2023/05/01 03:49:03;;;;;;;7.23;3.80;;;;;;;1.85;89.85;97997.78;6073838;29;20240;-42
2023/05/01 03:52:11;;;;;;;8.93;3.80;;;;;;;1.84;89.83;98004.03;6056732;29;20714;-41
2023/05/01 03:55:13;;;;;;;7.23;4.10;;;;;;;1.83;89.89;98002.41;6056251;29;20234;-41
2023/05/01 03:58:16;;;;;;;6.17;4.10;;;;;;;1.86;89.92;97998.59;6073104;29;20253;-41
2023/05/01 04:01:19;;;;;;;8.27;4.10;;;;;;;1.82;89.81;98003.38;6056778;29;20249;-42
2023/05/01 04:04:21;;;;;;;5.73;4.80;;;;;;;1.78;89.89;98000.31;6074690;29;20243;-41
2023/05/01 04:07:29;;;;;;;6.97;4.80;;;;;;;1.76;90.06;97993.59;6060514;29;20761;-41
2023/05/01 04:10:31;;;;;;;6.40;4.30;;;;;;;1.76;90.02;97983.06;6054041;29;20230;-41
2023/05/01 04:13:37;;;;;;;8.00;4.10;;;;;;;1.79;90.21;97993.25;6055931;29;20794;-41
2023/05/01 04:16:40;;;;;;;6.23;4.70;;;;;;;1.79;90.58;97986.16;6072041;29;20639;-42
2023/05/01 04:19:42;;;;;;;8.63;4.80;;;;;;;1.82;90.60;97990.22;6072992;29;20243;-41
2023/05/01 04:22:44;;;;;;;6.40;5.13;;;;;;;1.89;90.31;97987.72;6063953;29;20237;-41
2023/05/01 04:25:46;;;;;;;8.63;5.10;;;;;;;1.72;90.11;97960.78;6056844;29;20734;-41
2023/05/01 04:28:51;;;;;;;6.60;5.07;;;;;;;1.86;90.60;97990.69;6056595;29;20243;-41
2023/05/01 04:31:57;;;;;;;8.30;4.67;;;;;;;1.87;90.66;97985.25;6057120;29;20268;-41
2023/05/01 04:34:59;;;;;;;9.50;4.77;;;;;;;1.90;90.69;97989.34;6063085;29;20237;-41
2023/05/01 04:38:02;;;;;;;5.20;4.30;;;;;;;1.92;90.77;97976.84;6055994;29;20319;-42
2023/05/01 04:41:05;;;;;;;8.57;5.67;;;;;;;1.92;90.86;97975.06;6056284;29;20243;-41
2023/05/01 04:44:07;;;;;;;6.30;4.60;;;;;;;2.01;91.10;97983.66;6064114;29;20245;-42
2023/05/01 04:47:09;;;;;;;5.80;4.63;;;;;;;2.08;91.26;97981.97;6063055;29;20376;-42
2023/05/01 04:50:11;;;;;;;7.73;4.93;;;;;;;2.20;91.26;97982.31;6072473;29;20242;-41
2023/05/01 04:53:14;;;;;;;9.67;5.20;;;;;;;2.22;91.23;97991.66;6055941;29;20234;-42
2023/05/01 04:56:16;;;;;;;9.63;5.27;;;;;;;2.24;91.22;97981.78;6055817;29;20242;-41
2023/05/01 04:59:20;;;;;;;6.60;4.37;;;;;;;2.29;91.45;97978.59;6055717;29;20781;-41
2023/05/01 05:02:22;;;;;;;7.43;4.87;;;;;;;2.37;91.25;97975.06;6054690;29;20470;-43
2023/05/01 05:05:25;;;;;;;8.47;5.07;;;;;;;2.44;91.33;97983.84;6074578;29;20594;-42
2023/05/01 05:08:27;;;;;;;8.53;5.00;;;;;;;2.50;91.29;97988.38;6061928;29;20239;-42
2023/05/01 05:11:35;;;;;;;4.73;4.03;;;;;;;2.55;91.26;97988.63;6061951;29;20224;-42
2023/05/01 05:14:41;;;;;;;7.97;4.60;;;;;;;2.61;91.11;97971.31;6074566;29;20587;-43
2023/05/01 05:17:44;;;;;;;10.57;4.77;;;;;;;2.71;91.32;97977.94;6061067;29;20242;-44
2023/05/01 05:20:47;;;;;;;9.20;4.67;;;;;;;2.55;91.15;97949.19;6076645;29;20239;-42
2023/05/01 05:23:49;;;;;;;7.07;4.23;;;;;;;2.81;91.05;97980.28;6059732;29;20235;-43
2023/05/01 05:26:51;;;;;;;7.23;4.70;;;;;;;2.89;91.13;97982.78;6060243;29;20329;-45
2023/05/01 05:29:54;;;;;;;6.30;4.87;;;;;;;2.97;91.02;97981.88;6067641;29;20243;-42
2023/05/01 05:32:56;;;;;;;8.77;4.63;;;;;;;3.01;91.01;97981.31;6068010;29;20870;-44
2023/05/01 05:35:59;;;;;;;4.67;3.90;;;;;;;3.06;91.09;97980.75;6067907;29;20379;-44
2023/05/01 05:39:07;;;;;;;5.30;4.53;;;;;;;3.20;90.99;97979.06;6064402;29;20240;-42
2023/05/01 05:42:09;;;;;;;7.27;4.73;;;;;;;3.28;91.04;97981.56;6059586;29;20287;-44
2023/05/01 05:45:11;;;;;;;5.80;4.00;;;;;;;3.35;90.93;97980.66;6076809;29;20258;-44
2023/05/01 05:48:13;;;;;;;5.20;4.67;;;;;;;3.46;90.97;97983.78;6066522;29;20224;-44
2023/05/01 05:51:16;;;;;;;7.00;4.17;;;;;;;3.55;90.90;97983.47;6076720;29;20220;-44
2023/05/01 05:54:18;;;;;;;9.33;4.40;;;;;;;3.66;90.91;97979.50;6059343;29;20696;-45
2023/05/01 05:57:22;;;;;;;4.23;3.50;;;;;;;3.78;90.94;97982.41;6052875;29;20319;-46
2023/05/01 06:00:24;;;;;;;6.17;3.93;;;;;;;3.91;90.95;97979.88;6072789;29;20307;-43
2023/05/01 06:03:27;;;;;;;6.67;3.90;;;;;;;4.06;90.98;97982.44;6059780;29;20300;-45
2023/05/01 06:06:34;;;;;;;4.17;3.67;;;;;;;4.23;91.13;97973.19;6060598;29;20239;-44
2023/05/01 06:09:36;;;;;;;7.27;4.87;;;;;;;4.34;91.02;97966.59;6063252;29;20326;-45
2023/05/01 06:12:38;;;;;;;8.40;4.67;;;;;;;4.55;91.09;97961.19;6059552;29;20731;-46
2023/05/01 06:15:46;;;;;;;7.43;4.17;;;;;;;4.76;91.12;97967.38;6064906;29;20239;-45
2023/05/01 06:18:49;;;;;;;4.77;4.27;;;;;;;4.99;91.05;97967.03;6075509;29;20247;-45
2023/05/01 06:21:51;;;;;;;4.77;3.67;;;;;;;5.18;90.96;97966.28;6075006;29;20239;-43
2023/05/01 06:24:54;;;;;;;5.53;4.20;;;;;;;5.44;90.85;97971.59;6057995;29;20244;-42
2023/05/01 06:27:58;;;;;;;5.70;4.20;;;;;;;5.66;90.94;97966.13;6059500;29;20654;-44
2023/05/01 06:31:00;;;;;;;7.00;4.33;;;;;;;5.92;90.81;97966.16;6065137;29;20896;-43
2023/05/01 06:34:07;;;;;;;6.40;4.27;;;;;;;6.24;90.47;97971.59;6058735;29;20235;-42
2023/05/01 06:37:25;;;;;;;6.30;4.50;;;;;;;6.61;89.97;97964.78;6058403;29;20337;-43
2023/05/01 06:40:30;;;;;;;6.80;4.50;;;;;;;7.04;89.30;97964.16;6058509;29;20262;-43
2023/05/01 06:43:32;;;;;;;7.67;4.10;;;;;;;7.45;86.66;97958.44;6066397;29;20246;-43
2023/05/01 06:46:34;;;;;;;4.70;3.73;;;;;;;7.90;86.09;97957.47;6058381;29;20614;-43
2023/05/01 06:49:36;;;;;;;5.77;4.23;;;;;;;8.24;84.40;97961.44;6074910;29;20247;-43
2023/05/01 06:52:39;;;;;;;6.30;4.40;;;;;;;8.43;83.97;97946.38;6074996;29;20331;-43
2023/05/01 06:55:41;;;;;;;3.90;3.30;;;;;;;8.79;82.17;97972.09;6058665;29;20228;-43
2023/05/01 06:58:43;;;;;;;6.67;3.60;;;;;;;9.01;80.88;97962.63;6074675;29;20236;-44
2023/05/01 07:01:45;;;;;;;5.93;4.27;;;;;;;9.31;79.38;97961.81;6075054;29;20241;-43
2023/05/01 07:04:47;;;;;;;5.67;3.30;;;;;;;9.60;78.32;97956.66;6074650;29;20293;-44
2023/05/01 07:07:49;;;;;;;7.13;4.77;;;;;;;9.99;63.31;97952.53;6075829;29;20233;-44
2023/05/01 07:11:02;;;;;;;5.27;3.33;;;;;;;10.39;65.27;97954.50;6073353;29;20229;-44
2023/05/01 07:14:04;;;;;;;5.50;3.40;;;;;;;10.66;68.88;97952.16;6075427;29;20592;-44
2023/05/01 07:17:08;;;;;;;4.37;3.53;;;;;;;10.76;68.42;97957.69;6078632;29;20280;-44
2023/05/01 07:20:11;;;;;;;6.23;4.37;;;;;;;11.06;59.01;97955.63;6074878;29;20244;-44
2023/05/01 07:23:13;;;;;;;5.50;4.20;;;;;;;11.28;55.56;97954.94;6062280;29;20298;-44
2023/05/01 07:26:15;;;;;;;6.60;4.30;;;;;;;11.33;54.79;97952.41;6062855;29;20282;-44
2023/05/01 07:29:17;;;;;;;5.97;3.40;;;;;;;11.47;60.19;97951.00;6062123;29;20335;-44
2023/05/01 07:32:19;;;;;;;4.40;3.13;;;;;;;11.56;62.11;97952.25;6070137;29;20273;-44
2023/05/01 07:35:22;;;;;;;6.07;4.37;;;;;;;11.75;58.16;97946.69;6074862;29;20280;-46
2023/05/01 07:38:25;;;;;;;4.57;3.40;;;;;;;11.93;60.32;97945.66;6074574;29;20251;-46
2023/05/01 07:41:27;;;;;;;6.23;3.67;;;;;;;12.05;59.82;97949.84;6073657;29;20262;-44
2023/05/01 07:44:29;;;;;;;5.00;4.00;;;;;;;12.16;54.68;97936.66;6073546;29;20242;-44
2023/05/01 07:47:32;;;;;;;5.43;3.90;;;;;;;12.28;53.75;97938.16;6073707;29;20299;-45
2023/05/01 07:50:34;;;;;;;5.97;3.43;;;;;;;12.54;57.45;97928.63;6072909;29;20247;-45
2023/05/01 07:53:37;;;;;;;6.00;3.50;;;;;;;12.65;57.65;97935.69;6073583;29;20327;-45
2023/05/01 07:56:39;;;;;;;4.27;3.37;;;;;;;12.75;60.37;97931.53;6073563;29;20371;-45
2023/05/01 07:59:41;;;;;;;4.17;3.67;;;;;;;12.71;55.95;97907.19;6073391;29;20237;-45
2023/05/01 08:02:43;;;;;;;4.43;3.53;;;;;;;13.01;53.18;97938.00;6072721;29;20732;-44
2023/05/01 08:05:45;;;;;;;7.20;4.07;;;;;;;13.16;53.88;97940.84;6074966;29;20233;-45
2023/05/01 08:08:47;;;;;;;8.27;4.30;;;;;;;13.38;52.15;97928.22;6074176;29;20244;-45
2023/05/01 08:11:49;;;;;;;4.87;3.90;;;;;;;13.32;52.89;97936.47;6075896;29;20314;-46
2023/05/01 08:14:52;;;;;;;6.13;4.33;;;;;;;13.22;52.13;97923.81;6058015;29;20319;-45
2023/05/01 08:17:54;;;;;;;6.20;3.80;;;;;;;13.41;53.04;97925.06;6072888;29;20331;-44
2023/05/01 08:20:56;;;;;;;6.37;4.20;;;;;;;13.45;55.89;97936.06;6060872;29;20725;-47
2023/05/01 08:23:58;;;;;;;6.10;4.30;;;;;;;13.36;52.89;97926.88;6061220;29;20361;-50
2023/05/01 08:27:01;;;;;;;5.97;4.10;;;;;;;13.57;54.44;97928.69;6061668;29;20862;-45
2023/05/01 08:30:03;;;;;;;4.13;3.70;;;;;;;13.85;52.94;97927.56;6061723;29;20240;-45
2023/05/01 08:33:06;;;;;;;6.03;4.70;;;;;;;14.11;55.87;97931.22;6068935;29;20571;-46
2023/05/01 08:36:09;;;;;;;5.70;3.77;;;;;;;14.28;53.01;97931.03;6072202;29;20583;-48
2023/05/01 08:39:11;;;;;;;7.30;4.73;;;;;;;14.14;52.06;97919.19;6072805;29;20681;-45
2023/05/01 08:42:13;;;;;;;6.33;4.73;;;;;;;14.13;52.42;97925.59;6072236;29;20228;-44
2023/05/01 08:45:17;;;;;;;6.13;4.47;;;;;;;14.12;53.89;97919.44;6073193;29;20224;-45
2023/05/01 08:48:21;;;;;;;6.33;4.30;;;;;;;14.35;52.66;97928.97;6069820;29;20227;-46
2023/05/01 08:51:25;;;;;;;6.87;4.80;;;;;;;14.36;51.54;97919.03;6072388;29;20236;-45
2023/05/01 08:54:30;;;;;;;5.30;4.43;;;;;;;14.18;53.82;97917.59;6073770;29;20291;-46
2023/05/01 08:57:32;;;;;;;5.13;4.63;;;;;;;14.26;51.76;97914.44;6072693;29;20323;-45
2023/05/01 09:00:37;;;;;;;5.20;3.77;;;;;;;14.32;55.10;97897.31;6070808;29;20240;-45
2023/05/01 09:03:39;;;;;;;4.77;3.87;;;;;;;14.71;53.65;97897.78;6073421;29;20776;-46
2023/05/01 09:06:43;;;;;;;4.60;3.77;;;;;;;14.99;50.85;97898.41;6071233;29;20608;-46
2023/05/01 09:09:46;;;;;;;4.67;3.50;;;;;;;15.04;53.85;97894.94;6073080;29;20240;-47
2023/05/01 09:12:55;;;;;;;5.17;3.40;;;;;;;15.29;48.61;97886.13;6072657;29;20720;-45
2023/05/01 09:15:57;;;;;;;3.70;3.30;;;;;;;15.23;51.48;97888.78;6072220;29;20883;-45
2023/05/01 09:18:59;;;;;;;4.37;3.43;;;;;;;15.46;49.85;97883.97;6070609;29;20233;-45
2023/05/01 09:22:01;;;;;;;6.77;3.00;;;;;;;15.65;49.29;97882.38;6071849;29;20252;-45
2023/05/01 09:25:04;;;;;;;7.00;3.37;;;;;;;15.56;49.94;97875.91;6073231;29;20710;-46
2023/05/01 09:28:06;;;;;;;4.50;3.20;;;;;;;15.71;47.79;97888.56;6072659;29;20247;-45
2023/05/01 09:31:28;;;;;;;5.07;2.93;;;;;;;15.86;48.81;97882.38;6073283;29;20242;-44
2023/05/01 09:34:30;;;;;;;4.47;2.90;;;;;;;15.83;52.22;97872.97;6071712;29;20236;-50
2023/05/01 09:37:33;;;;;;;5.93;2.50;;;;;;;15.90;50.27;97873.50;6072121;29;20242;-47
2023/05/01 09:40:35;;;;;;;3.10;2.73;;;;;;;15.97;47.85;97873.22;6072739;29;20241;-45
2023/05/01 09:43:37;;;;;;;2.90;2.60;;;;;;;15.92;48.04;97874.03;6071266;29;20247;-45
2023/05/01 09:46:42;;;;;;;3.43;2.77;;;;;;;16.07;47.01;97861.66;6056377;29;20728;-48
2023/05/01 09:49:49;;;;;;;6.10;2.70;;;;;;;16.09;46.28;97862.97;6073374;29;20279;-46
2023/05/01 09:52:51;;;;;;;4.97;2.70;;;;;;;16.24;47.45;97872.88;6075009;29;20246;-46
2023/05/01 09:56:00;;;;;;;2.97;2.47;;;;;;;16.20;49.60;97863.75;6076847;29;20635;-47
2023/05/01 09:59:16;;;;;;;3.60;2.57;;;;;;;16.40;47.25;97865.56;6076850;29;20273;-47
2023/05/01 10:02:28;;;;;;;4.77;2.70;;;;;;;16.37;46.10;97852.69;6075567;29;20661;-48
2023/05/01 10:05:43;;;;;;;2.87;2.10;;;;;;;16.15;48.13;97853.03;6075399;29;20715;-45
2023/05/01 10:08:47;;;;;;;3.10;2.30;;;;;;;16.32;48.50;97852.72;6075686;29;20236;-46
2023/05/01 10:11:54;;;;;;;3.07;2.67;;;;;;;16.52;51.62;97848.06;6074796;29;20236;-48
2023/05/01 10:14:57;;;;;;;3.63;2.63;;;;;;;16.66;45.76;97856.31;6079612;29;20239;-45
2023/05/01 10:17:59;;;;;;;5.83;2.80;;;;;;;16.82;46.00;97850.91;6077269;29;20246;-49
2023/05/01 10:21:03;;;;;;;2.67;2.27;;;;;;;17.01;47.55;97841.91;6076242;29;20335;-48
2023/05/01 10:24:07;;;;;;;3.13;2.60;;;;;;;17.20;45.62;97841.25;6076115;29;20677;-49
2023/05/01 10:27:10;;;;;;;2.57;2.23;;;;;;;17.10;45.78;97844.81;6075186;29;20232;-50
2023/05/01 10:30:15;;;;;;;5.70;2.50;;;;;;;17.21;46.30;97834.75;6075665;29;20616;-46
2023/05/01 10:33:17;;;;;;;3.73;2.70;;;;;;;17.35;44.84;97838.44;6074514;29;20285;-48
2023/05/01 10:36:41;;;;;;;2.90;2.47;;;;;;;17.41;45.84;97828.41;6075394;29;20224;-49
2023/05/01 10:39:43;;;;;;;4.63;2.53;;;;;;;17.38;46.59;97820.88;6055626;29;20888;-48
2023/05/01 10:43:14;;;;;;;4.10;2.83;;;;;;;17.20;44.61;97823.19;6074922;29;20236;-45
2023/05/01 10:46:19;;;;;;;3.77;2.43;;;;;;;17.33;47.30;97816.34;6076010;29;20617;-48
2023/05/01 10:49:22;;;;;;;3.63;2.20;;;;;;;17.46;46.46;97826.47;6075578;29;20711;-45
2023/05/01 10:52:24;;;;;;;4.83;2.73;;;;;;;17.64;43.78;97818.78;6075191;29;20228;-47
2023/05/01 10:55:37;;;;;;;4.97;2.33;;;;;;;17.67;45.45;97812.81;6075210;29;20252;-45
2023/05/01 10:58:39;;;;;;;4.83;2.63;;;;;;;17.83;46.04;97813.50;6076812;29;20386;-45
2023/05/01 11:01:44;;;;;;;3.43;2.30;;;;;;;17.88;45.44;97800.78;6078074;29;20326;-48
2023/05/01 11:04:49;;;;;;;3.10;2.00;;;;;;;18.25;42.63;97804.69;6078984;29;20239;-47
2023/05/01 11:08:33;;;;;;;2.40;2.00;;;;;;;18.33;44.30;97806.75;6074062;29;20295;-47
2023/05/01 11:11:35;;;;;;;2.50;2.30;;;;;;;18.52;42.11;97795.97;6067472;29;20232;-47
2023/05/01 11:14:52;;;;;;;7.30;2.40;;;;;;;18.21;42.41;97799.03;6074955;29;20235;-46
2023/05/01 11:17:55;;;;;;;6.23;2.20;;;;;;;17.78;44.99;97782.84;6074772;29;20259;-48
2023/05/01 11:20:58;;;;;;;4.03;2.20;;;;;;;18.02;44.48;97792.81;6074395;29;20380;-49
2023/05/01 11:24:01;;;;;;;2.87;2.43;;;;;;;18.06;44.06;97796.53;6075460;29;20314;-49
2023/05/01 11:27:03;;;;;;;3.03;2.33;;;;;;;18.04;43.57;97801.41;6074073;29;20319;-47
2023/05/01 11:30:06;;;;;;;4.27;2.50;;;;;;;17.95;43.50;97793.16;6074632;29;20291;-46
2023/05/01 11:33:09;;;;;;;3.23;1.93;;;;;;;18.00;44.88;97787.72;6072494;29;20255;-50
2023/05/01 11:36:12;;;;;;;2.20;2.00;;;;;;;17.93;45.18;97765.69;6061172;29;20716;-47
2023/05/01 11:39:16;;;;;;;2.63;2.40;;;;;;;17.98;46.12;97776.41;6074457;29;20378;-47
2023/05/01 11:42:21;;;;;;;2.10;1.83;;;;;;;18.08;44.61;97782.75;6074091;29;20228;-48
2023/05/01 11:45:24;;;;;;;3.53;2.03;;;;;;;17.96;43.58;97780.47;6073655;29;20228;-46
2023/05/01 11:48:27;;;;;;;2.90;2.10;;;;;;;17.97;43.50;97782.88;6071823;29;20236;-47
2023/05/01 11:51:30;;;;;;;4.70;2.10;;;;;;;17.81;44.42;97780.66;6074365;29;20255;-47
2023/05/01 11:54:46;;;;;;;4.17;1.93;;;;;;;17.67;43.51;97780.47;6073576;29;20772;-49
2023/05/01 11:57:50;;;;;;;2.23;2.03;;;;;;;17.16;44.66;97771.00;6073426;29;20791;-48
2023/05/01 12:00:52;;;;;;;3.57;2.00;;;;;;;17.00;45.44;97770.31;6073874;29;20247;-47
2023/05/01 12:03:54;;;;;;;2.90;2.17;;;;;;;16.90;47.54;97767.69;6060530;29;20614;-48
2023/05/01 12:06:56;;;;;;;4.80;2.47;;;;;;;16.96;46.61;97753.13;6073044;29;20236;-47
2023/05/01 12:09:59;;;;;;;2.17;1.80;;;;;;;17.07;46.56;97753.84;6072703;29;20859;-49
2023/05/01 12:13:06;;;;;;;2.33;2.13;;;;;;;17.27;47.73;97759.03;6074245;29;20248;-47
2023/05/01 12:16:08;;;;;;;1.97;1.73;;;;;;;17.66;45.81;97751.94;6061234;29;20331;-48
2023/05/01 12:19:14;;;;;;;2.77;1.87;;;;;;;18.14;44.17;97752.78;6060895;29;20251;-46
2023/05/01 12:22:17;;;;;;;2.97;1.70;;;;;;;18.37;42.67;97745.72;6061383;29;20705;-48
2023/05/01 12:25:19;;;;;;;3.23;2.20;;;;;;;18.38;41.80;97746.53;6061519;29;20713;-47
2023/05/01 12:28:21;;;;;;;2.87;1.57;;;;;;;18.32;42.42;97740.38;6069966;29;20243;-50
2023/05/01 12:31:24;;;;;;;3.27;2.00;;;;;;;18.02;41.16;97714.63;6072671;29;20581;-45
2023/05/01 12:34:32;;;;;;;4.07;1.97;;;;;;;17.82;43.62;97736.44;6072115;29;20240;-49
2023/05/01 12:37:35;;;;;;;6.10;2.10;;;;;;;17.71;44.64;97733.81;6073918;29;20674;-48
2023/05/01 12:40:38;;;;;;;3.00;1.77;;;;;;;17.72;43.24;97711.19;6071654;29;20239;-50
2023/05/01 12:43:41;;;;;;;3.13;1.60;;;;;;;17.87;43.58;97736.38;6074569;29;20497;-45
2023/05/01 12:46:55;;;;;;;1.60;1.50;;;;;;;17.87;42.71;97720.22;6072363;29;20231;-45
2023/05/01 12:50:02;;;;;;;1.67;1.47;;;;;;;17.73;42.66;97720.09;6056873;29;20243;-45
2023/05/01 12:53:05;;;;;;;3.17;1.87;;;;;;;17.82;41.53;97718.38;6072147;29;20248;-45
2023/05/01 12:56:07;;;;;;;3.13;1.97;;;;;;;17.89;41.58;97715.34;6055552;29;20365;-45
2023/05/01 12:59:21;;;;;;;3.40;1.90;;;;;;;18.02;42.05;97714.63;6074233;29;20752;-45
2023/05/01 13:02:29;;;;;;;2.57;1.97;;;;;;;17.96;41.53;97694.22;6073014;29;20244;-45
2023/05/01 13:05:31;;;;;;;1.90;1.60;;;;;;;17.94;42.90;97704.50;6060739;29;20608;-45
2023/05/01 13:08:36;;;;;;;2.97;1.70;;;;;;;17.97;42.01;97698.53;6071131;29;20243;-46
2023/05/01 13:11:38;;;;;;;2.00;1.67;;;;;;;17.99;41.77;97704.44;6073404;29;20236;-46
2023/05/01 13:14:42;;;;;;;3.13;1.83;;;;;;;17.87;41.98;97694.06;6074948;29;20242;-45
2023/05/01 13:17:44;;;;;;;3.43;1.70;;;;;;;17.76;42.16;97692.59;6072156;29;20712;-45
2023/05/01 13:20:47;;;;;;;2.47;1.77;;;;;;;17.65;43.72;97688.38;6072259;29;20236;-45
2023/05/01 13:23:54;;;;;;;3.67;1.83;;;;;;;17.70;42.29;97693.72;6056935;29;20231;-45
2023/05/01 13:27:00;;;;;;;2.57;1.80;;;;;;;17.77;41.26;97681.50;6074738;29;20244;-46
2023/05/01 13:30:06;;;;;;;2.80;1.80;;;;;;;17.74;41.86;97692.06;6079085;29;20243;-45
2023/05/01 13:33:09;;;;;;;1.50;1.40;;;;;;;17.78;42.47;97666.97;6077045;29;20222;-45
2023/05/01 13:36:13;;;;;;;3.73;1.90;;;;;;;18.04;41.72;97672.81;6077626;29;20697;-45
2023/05/01 13:39:27;;;;;;;2.73;1.60;;;;;;;18.23;40.85;97648.56;6072418;29;20228;-45
2023/05/01 13:42:29;;;;;;;1.77;1.63;;;;;;;18.53;40.49;97654.59;6059937;29;20243;-45
2023/05/01 13:45:31;;;;;;;2.13;1.60;;;;;;;18.64;40.33;97652.53;6060208;29;20232;-47
2023/05/01 13:48:33;;;;;;;2.67;1.93;;;;;;;18.51;40.88;97621.69;6065201;29;20258;-47
2023/05/01 13:51:41;;;;;;;3.70;1.60;;;;;;;18.67;39.45;97652.75;6065836;29;20609;-45
2023/05/01 13:54:45;;;;;;;2.03;1.80;;;;;;;18.50;40.77;97647.09;6064933;29;20593;-45
2023/05/01 13:57:48;;;;;;;2.37;1.77;;;;;;;18.67;40.77;97647.34;6065841;29;20233;-48
2023/05/01 14:00:50;;;;;;;3.33;2.03;;;;;;;18.70;41.38;97645.97;6072085;29;20387;-48
2023/05/01 14:03:56;;;;;;;1.90;1.53;;;;;;;18.48;40.92;97638.50;6076417;29;20257;-45
2023/05/01 14:07:00;;;;;;;1.40;1.30;;;;;;;18.57;40.43;97639.44;6076246;29;20331;-47
2023/05/01 14:10:02;;;;;;;2.33;1.27;;;;;;;18.50;40.90;97631.69;6074625;29;20239;-47
2023/05/01 14:13:04;;;;;;;1.40;1.30;;;;;;;18.59;42.90;97622.94;6078640;29;20728;-45
2023/05/01 14:16:09;;;;;;;2.10;1.50;;;;;;;18.77;40.97;97614.84;6075314;29;20376;-46
2023/05/01 14:19:15;;;;;;;2.20;1.70;;;;;;;18.80;41.63;97622.31;6077494;29;20240;-47
2023/05/01 14:22:17;;;;;;;2.10;1.90;;;;;;;18.78;41.12;97631.81;6059288;29;20240;-46
2023/05/01 14:25:33;;;;;;;2.43;1.87;;;;;;;18.49;42.25;97615.81;6075188;29;20324;-46
2023/05/01 14:28:46;;;;;;;1.93;1.70;;;;;;;18.39;43.15;97610.59;6067241;29;20252;-46
2023/05/01 14:31:48;;;;;;;2.40;1.60;;;;;;;18.35;42.08;97606.88;6075951;29;20644;-45
2023/05/01 14:34:51;;;;;;;1.83;1.57;;;;;;;18.07;43.04;97595.94;6076797;29;20680;-47